函館空港の過去48時間の天気

函館空港 (Hakodate)

現在時刻: 10/16 15:50 JST (10/16 06:50 UTC) 以下の時間は現地時間です。

過去48時間のMETAR気象情報
時間 風向 風速(m/s) 視程 気温(℃) 湿度(%) 気圧(hPa) 天気現象
16 15:00 西 7 10km以上 18 42 1011
16 14:00 西 7 10km以上 18 39 1011
16 13:00 南西 6 10km以上 19 43 1011
16 12:00 西南西 4 10km以上 18 52 1012
16 11:00 西南西 4 10km以上 18 60 1013
16 10:00 南南西 2 10km以上 16 72 1013
16 09:00 不定 1 10km以上 16 77 1014
16 08:00 北北東 2 10km以上 13 94 1014
16 07:00 北北東 2 10km以上 12 94 1014
16 06:10 北北東 2 10km以上 11 94 1014
15 20:00 北北東 2 10km以上 11 87 1016
15 19:00 北東 2 10km以上 12 82 1016
15 18:00 3 10km以上 14 72 1016
15 17:00 西 4 10km以上 17 55 1016
15 16:00 南西 5 10km以上 18 52 1016
15 15:00 南西 5 10km以上 18 52 1016
15 14:00 南南西 5 10km以上 18 56 1016
15 13:00 南南西 4 10km以上 18 56 1016
15 12:00 南西 4 10km以上 18 49 1017
15 11:00 南西 3 10km以上 18 56 1018
15 10:00 西南西 3 10km以上 17 59 1019
15 09:00 不定 1 10km以上 15 72 1019
15 08:00 北北東 2 10km以上 14 88 1019
15 07:00 北北東 3 10km以上 11 94 1019
15 06:10 3 10km以上 10 94 1019
14 20:00 東北東 3 10km以上 13 94 1020 弱いしゅう雨
14 19:00 4 10km以上 13 88 1020
14 18:00 4 10km以上 13 94 1020
14 17:05 東南東 5 10km以上 14 77 1020 弱いしゅう雨
14 17:00 3 10km以上 14 88 1020 弱いしゅう雨
14 16:48 北北東 4 7000m 14 88 1020 しゅう雨
14 16:31 北東 2 10km以上 15 77 1019 弱いしゅう雨
14 16:00 東南東 6 10km以上 17 63 1019 弱いしゅう雨
RJCH 160600Z 27014KT 9999 FEW040 SCT/// 18/05 Q1011
RJCH 160500Z 26013KT 9999 FEW040 SCT060 18/04 Q1011
RJCH 160400Z 23012KT 9999 FEW040 SCT060 19/06 Q1011
RJCH 160300Z 24008KT 200V270 9999 FEW030 SCT040 18/08 Q1012
RJCH 160200Z 24008KT 9999 FEW030 SCT050 18/10 Q1013
RJCH 160100Z 21004KT 180V270 9999 FEW020 SCT040 16/11 Q1013
RJCH 160000Z VRB02KT 9999 FEW030 SCT040 16/12 Q1014
RJCH 152300Z 03003KT 9999 FEW040 SCT070 13/12 Q1014
RJCH 152200Z 02003KT 9999 FEW040 SCT080 12/11 Q1014
RJCH 152110Z 02004KT 9999 FEW005 SCT070 11/10 Q1014 RMK 1ST005 4AC070 A2995
RJCH 151100Z 02004KT 330V080 9999 FEW025 SCT040 BKN050 11/09 Q1016
RJCH 151000Z 04004KT 9999 FEW020 SCT/// 12/09 Q1016
RJCH 150900Z 01005KT 9999 FEW030 SCT/// 14/09 Q1016
RJCH 150800Z 26008KT 9999 FEW020 SCT050 17/08 Q1016
RJCH 150700Z 23010KT 9999 FEW035 BKN050 18/08 Q1016
RJCH 150600Z 22009KT 9999 FEW030 BKN050 18/08 Q1016
RJCH 150500Z 21009KT 180V240 9999 FEW040 SCT060 BKN/// 18/09 Q1016
RJCH 150400Z 21007KT 9999 FEW025 SCT040 BKN/// 18/09 Q1016
RJCH 150300Z 23008KT 9999 FEW030 BKN/// 18/07 Q1017
RJCH 150200Z 23006KT 190V260 9999 FEW030 BKN/// 18/09 Q1018
RJCH 150100Z 24006KT 210V280 9999 FEW030 BKN/// 17/09 Q1019
RJCH 150000Z VRB02KT 9999 FEW030 SCT/// 15/10 Q1019
RJCH 142300Z 02003KT 9999 FEW030 BKN/// 14/12 Q1019
RJCH 142200Z 02005KT 9999 FEW020 SCT/// 11/10 Q1019
RJCH 142110Z 01005KT 9999 FEW020 SCT/// 10/09 Q1019 RMK 1CU020 A3010
RJCH 141100Z 06005KT 9999 -SHRA FEW006 SCT020 BKN040 13/12 Q1020
RJCH 141000Z 09008KT 9999 FEW012 SCT025 BKN040 13/11 Q1020
RJCH 140900Z 08007KT 9999 FEW015 SCT040 BKN060 13/12 Q1020
RJCH 140805Z 12010KT 9999 -SHRA FEW008 SCT020 BKN030 14/10 Q1020 RMK 1ST008 3CU020 6CU030 A3013
RJCH 140800Z VRB05KT 9999 -SHRA FEW007 SCT015 BKN030 14/12 Q1020
RJCH 140748Z 02007KT 330V070 7000 SHRA FEW004 SCT015 BKN030 14/12 Q1020 RMK 1ST004 3ST015 6CU030 A3012
RJCH 140731Z 05004KT 350V080 9999 -SHRA FEW008 SCT025 BKN040 15/11 Q1019 RMK 1ST008 3CU025 5CU040 A3011
RJCH 140700Z 11012KT 9999 -SHRA FEW015 SCT030 BKN050 17/10 Q1019